Time;durP1;ratioP1;P1;durP2;ratioP2;P2;SDS_P1;SDS_P2;PMS_P1;PMS_P2;Temp;Humidity;BMP_temperature;BMP_pressure;BME280_temperature;BME280_humidity;BME280_pressure;Samples;Min_cycle;Max_cycle;Signal;HPM_P1;HPM_P2
2023/07/26 00:00:04;;;;;;;2.47;0.60;;;14.70;99.90;;;;;;4985710;28;20041;-35
2023/07/26 00:02:30;;;;;;;3.47;0.90;;;14.70;99.90;;;;;;4981762;28;20050;-34
2023/07/26 00:04:55;;;;;;;1.70;0.75;;;14.70;99.90;;;;;;4984249;28;20100;-34
2023/07/26 00:07:21;;;;;;;3.20;1.00;;;14.70;99.90;;;;;;4983908;28;20070;-35
2023/07/26 00:09:46;;;;;;;3.42;0.70;;;14.70;99.90;;;;;;4987714;28;20467;-35
2023/07/26 00:12:12;;;;;;;1.65;0.77;;;14.70;99.90;;;;;;4981454;28;20067;-35
2023/07/26 00:14:38;;;;;;;1.52;0.75;;;14.70;99.90;;;;;;4981385;28;20057;-34
2023/07/26 00:17:04;;;;;;;1.98;0.90;;;14.70;99.90;;;;;;4984723;28;20046;-35
2023/07/26 00:19:30;;;;;;;4.45;0.80;;;14.60;99.90;;;;;;4982575;28;20403;-35
2023/07/26 00:21:55;;;;;;;2.38;0.80;;;14.60;99.90;;;;;;4986526;28;20064;-35
2023/07/26 00:24:21;;;;;;;4.72;0.95;;;14.60;99.90;;;;;;4985492;28;20077;-34
2023/07/26 00:26:46;;;;;;;1.35;0.90;;;14.60;99.90;;;;;;4982054;28;20415;-34
2023/07/26 00:29:12;;;;;;;2.30;0.90;;;14.60;99.90;;;;;;4988196;28;20197;-34
2023/07/26 00:31:38;;;;;;;1.98;0.70;;;14.60;99.90;;;;;;4986734;28;20408;-34
2023/07/26 00:34:03;;;;;;;1.70;1.00;;;14.60;99.90;;;;;;4983594;28;20088;-34
2023/07/26 00:36:29;;;;;;;3.50;0.73;;;14.60;99.90;;;;;;4983784;28;20050;-34
2023/07/26 00:38:55;;;;;;;3.63;0.95;;;14.60;99.90;;;;;;4982824;28;20590;-34
2023/07/26 00:41:21;;;;;;;2.47;0.80;;;14.60;99.90;;;;;;4986200;28;20054;-34
2023/07/26 00:43:47;;;;;;;1.98;0.80;;;14.60;99.90;;;;;;4987008;28;20057;-35
2023/07/26 00:46:13;;;;;;;2.13;0.60;;;14.50;99.90;;;;;;4983256;28;20055;-35
2023/07/26 00:48:39;;;;;;;3.95;0.70;;;14.50;99.90;;;;;;4985800;28;20058;-35
2023/07/26 00:51:05;;;;;;;2.65;0.77;;;14.50;99.90;;;;;;4987004;28;20054;-35
2023/07/26 00:53:32;;;;;;;3.05;1.02;;;14.50;99.90;;;;;;4982829;28;20061;-35
2023/07/26 00:55:58;;;;;;;4.40;0.82;;;14.50;99.90;;;;;;4984173;28;20476;-35
2023/07/26 00:58:24;;;;;;;1.77;0.65;;;14.50;99.90;;;;;;4981685;28;20488;-35
2023/07/26 01:00:50;;;;;;;5.05;1.58;;;14.40;99.90;;;;;;4986532;28;20138;-35
2023/07/26 01:03:17;;;;;;;1.00;0.60;;;14.40;99.90;;;;;;4982032;28;20053;-35
2023/07/26 01:05:48;;;;;;;3.28;0.85;;;14.30;99.90;;;;;;4985974;28;20054;-35
2023/07/26 01:08:27;;;;;;;2.92;0.65;;;14.40;99.90;;;;;;4985109;28;20492;-35
2023/07/26 01:11:01;;;;;;;2.03;0.77;;;14.30;99.90;;;;;;4995845;28;20087;-35
2023/07/26 01:13:41;;;;;;;2.10;1.00;;;14.30;99.90;;;;;;4979621;28;20058;-34
2023/07/26 01:16:08;;;;;;;3.80;0.80;;;14.20;99.90;;;;;;4979903;28;20056;-34
2023/07/26 01:18:33;;;;;;;3.17;0.85;;;14.20;99.90;;;;;;4984117;28;20129;-34
2023/07/26 01:20:59;;;;;;;1.88;0.80;;;14.10;99.90;;;;;;4983502;28;20177;-34
2023/07/26 01:23:25;;;;;;;12.43;2.72;;;14.10;99.90;;;;;;4985312;28;20046;-33
2023/07/26 01:25:51;;;;;;;2.78;0.80;;;14.00;99.90;;;;;;4982963;28;20056;-34
2023/07/26 01:28:17;;;;;;;4.25;0.93;;;14.00;99.90;;;;;;4984441;28;20054;-35
2023/07/26 01:30:43;;;;;;;1.33;0.60;;;14.00;99.90;;;;;;4987135;28;20042;-35
2023/07/26 01:33:09;;;;;;;3.53;0.90;;;14.00;99.90;;;;;;4981398;28;20272;-35
2023/07/26 01:35:38;;;;;;;2.83;1.17;;;14.00;99.90;;;;;;4983811;28;20057;-34
2023/07/26 01:38:05;;;;;;;1.60;0.88;;;14.00;99.90;;;;;;4984420;28;20177;-34
2023/07/26 01:40:31;;;;;;;1.17;0.68;;;13.90;99.90;;;;;;4982312;28;20046;-35
2023/07/26 01:42:57;;;;;;;2.55;1.00;;;13.90;99.90;;;;;;4981964;28;20050;-35
2023/07/26 01:45:23;;;;;;;3.33;1.10;;;13.90;99.90;;;;;;4982384;28;20050;-34
2023/07/26 01:47:50;;;;;;;1.95;1.20;;;13.90;99.90;;;;;;4986070;28;20528;-35
2023/07/26 01:50:16;;;;;;;2.70;1.15;;;13.80;99.90;;;;;;4986331;28;20051;-35
2023/07/26 01:52:42;;;;;;;2.15;0.90;;;13.70;99.90;;;;;;4984291;28;20046;-35
2023/07/26 01:55:08;;;;;;;1.67;1.02;;;13.60;99.90;;;;;;4980850;28;20596;-34
2023/07/26 01:57:33;;;;;;;3.67;1.50;;;13.60;99.90;;;;;;4986459;28;20046;-35
2023/07/26 02:00:00;;;;;;;2.88;1.10;;;13.50;99.90;;;;;;4983808;28;20049;-35
2023/07/26 02:02:25;;;;;;;1.75;1.00;;;13.50;99.90;;;;;;4982396;28;20057;-35
2023/07/26 02:04:51;;;;;;;4.47;1.25;;;13.40;99.90;;;;;;4975992;28;20054;-34
2023/07/26 02:07:16;;;;;;;2.53;1.13;;;13.40;99.90;;;;;;4978997;28;20062;-34
2023/07/26 02:09:42;;;;;;;1.90;1.20;;;13.30;99.90;;;;;;4986697;28;20057;-34
2023/07/26 02:12:08;;;;;;;2.28;1.10;;;13.20;99.90;;;;;;4984434;28;20066;-34
2023/07/26 02:14:34;;;;;;;4.55;1.60;;;13.20;99.90;;;;;;4979601;28;20046;-35
2023/07/26 02:16:59;;;;;;;2.58;1.30;;;13.10;99.90;;;;;;4984578;28;20057;-34
2023/07/26 02:19:25;;;;;;;3.22;1.50;;;13.10;99.90;;;;;;4984273;28;20069;-34
2023/07/26 02:21:51;;;;;;;2.78;1.30;;;13.10;99.90;;;;;;4978984;28;20053;-35
2023/07/26 02:24:16;;;;;;;2.83;1.50;;;13.00;99.90;;;;;;4982520;28;20085;-34
2023/07/26 02:26:42;;;;;;;3.40;1.77;;;12.90;99.90;;;;;;4980398;28;20053;-34
2023/07/26 02:29:08;;;;;;;2.35;1.15;;;12.90;99.90;;;;;;4978913;28;20062;-34
2023/07/26 02:31:33;;;;;;;2.65;1.40;;;12.80;99.90;;;;;;4985186;28;20045;-34
2023/07/26 02:33:59;;;;;;;5.00;1.83;;;12.70;99.90;;;;;;4982462;28;20046;-34
2023/07/26 02:36:24;;;;;;;2.70;1.30;;;12.70;99.90;;;;;;4983051;28;20062;-34
2023/07/26 02:38:50;;;;;;;4.60;1.80;;;12.60;99.90;;;;;;4984699;28;20047;-34
2023/07/26 02:41:16;;;;;;;3.95;1.60;;;12.60;99.90;;;;;;4984776;28;20061;-34
2023/07/26 02:43:42;;;;;;;3.63;1.45;;;12.50;99.90;;;;;;4983688;28;20523;-34
2023/07/26 02:46:08;;;;;;;3.25;1.70;;;12.50;99.90;;;;;;4982554;28;20054;-34
2023/07/26 02:48:34;;;;;;;2.92;1.60;;;12.50;99.90;;;;;;4982649;28;20088;-34
2023/07/26 02:51:00;;;;;;;4.43;1.40;;;12.40;99.90;;;;;;4981694;28;20089;-33
2023/07/26 02:53:25;;;;;;;3.15;1.40;;;12.40;99.90;;;;;;4982239;28;20061;-34
2023/07/26 02:55:51;;;;;;;2.30;1.38;;;12.40;99.90;;;;;;4984910;28;20085;-34
2023/07/26 02:58:17;;;;;;;3.20;1.50;;;12.40;99.90;;;;;;4983231;28;20420;-34
2023/07/26 03:00:42;;;;;;;2.88;1.60;;;12.30;99.90;;;;;;4983490;28;20417;-34
2023/07/26 03:03:08;;;;;;;3.35;1.60;;;12.30;99.90;;;;;;4982153;28;20046;-34
2023/07/26 03:05:36;;;;;;;4.45;1.77;;;12.20;99.90;;;;;;4985647;28;20142;-34
2023/07/26 03:08:02;;;;;;;2.15;1.50;;;12.20;99.90;;;;;;4983614;28;20054;-34
2023/07/26 03:10:28;;;;;;;4.75;1.95;;;12.20;99.90;;;;;;4985282;28;20471;-34
2023/07/26 03:12:55;;;;;;;3.20;1.58;;;12.10;99.90;;;;;;4987365;28;20050;-34
2023/07/26 03:15:21;;;;;;;4.18;2.03;;;12.10;99.90;;;;;;4987982;28;20129;-34
2023/07/26 03:17:46;;;;;;;3.05;1.42;;;12.10;99.90;;;;;;4986449;28;20562;-34
2023/07/26 03:20:12;;;;;;;5.03;1.90;;;12.00;99.90;;;;;;4989179;28;20050;-34
2023/07/26 03:22:38;;;;;;;4.55;2.28;;;12.00;99.90;;;;;;4986872;28;20042;-33
2023/07/26 03:25:04;;;;;;;2.60;1.50;;;12.00;99.90;;;;;;4984954;28;20096;-35
2023/07/26 03:27:29;;;;;;;2.58;1.60;;;12.00;99.90;;;;;;4986459;28;20050;-34
2023/07/26 03:29:55;;;;;;;4.32;1.60;;;12.00;99.90;;;;;;4983121;28;20097;-33
2023/07/26 03:32:21;;;;;;;2.63;1.65;;;12.00;99.90;;;;;;4987488;28;20065;-35
2023/07/26 03:34:47;;;;;;;4.80;1.95;;;12.00;99.90;;;;;;4986515;28;20046;-33
2023/07/26 03:37:12;;;;;;;4.10;2.22;;;12.00;99.90;;;;;;4988580;28;20108;-33
2023/07/26 03:39:38;;;;;;;5.57;2.15;;;12.00;99.90;;;;;;4987259;28;20046;-34
2023/07/26 03:42:04;;;;;;;3.33;1.70;;;11.90;99.90;;;;;;4985428;28;20061;-34
2023/07/26 03:44:29;;;;;;;3.42;2.00;;;11.90;99.90;;;;;;4986187;28;20057;-34
2023/07/26 03:46:55;;;;;;;4.05;2.15;;;11.90;99.90;;;;;;4990052;28;20141;-34
2023/07/26 03:49:21;;;;;;;5.35;2.38;;;11.90;99.90;;;;;;4988628;28;20139;-33
2023/07/26 03:51:46;;;;;;;4.47;2.65;;;11.90;99.90;;;;;;4986873;28;20061;-33
2023/07/26 03:54:12;;;;;;;3.53;1.63;;;11.90;99.90;;;;;;4986819;28;20058;-33
2023/07/26 03:56:38;;;;;;;4.15;2.10;;;11.90;99.90;;;;;;4987790;28;20141;-35
2023/07/26 03:59:03;;;;;;;4.70;2.50;;;11.90;99.90;;;;;;4983807;28;20133;-33
2023/07/26 04:01:29;;;;;;;3.72;2.08;;;11.80;99.90;;;;;;4983512;28;20137;-34
2023/07/26 04:03:54;;;;;;;4.60;1.85;;;11.80;99.90;;;;;;4984645;28;20046;-33
2023/07/26 04:06:20;;;;;;;3.15;2.15;;;11.80;99.90;;;;;;4986975;28;20054;-35
2023/07/26 04:08:46;;;;;;;7.32;2.25;;;11.90;99.90;;;;;;4983811;28;20054;-34
2023/07/26 04:11:12;;;;;;;3.72;2.25;;;11.90;99.90;;;;;;4982565;28;20750;-34
2023/07/26 04:13:37;;;;;;;4.20;2.28;;;12.00;99.90;;;;;;4988523;28;20049;-34
2023/07/26 04:16:17;;;;;;;3.05;2.08;;;12.00;99.90;;;;;;4988065;28;20065;-34
2023/07/26 04:18:43;;;;;;;4.55;2.25;;;12.00;99.90;;;;;;4985740;28;20499;-34
2023/07/26 04:21:16;;;;;;;3.20;2.10;;;12.10;99.90;;;;;;4988361;28;20069;-34
2023/07/26 04:23:43;;;;;;;4.13;2.10;;;12.10;99.90;;;;;;4987116;28;20515;-34
2023/07/26 04:26:09;;;;;;;5.43;2.42;;;12.10;99.90;;;;;;4981163;28;20488;-34
2023/07/26 04:28:35;;;;;;;4.43;2.30;;;12.10;99.90;;;;;;4985667;28;20058;-34
2023/07/26 04:31:00;;;;;;;5.15;2.55;;;12.20;99.90;;;;;;4988325;28;20142;-34
2023/07/26 04:33:26;;;;;;;3.97;2.50;;;12.20;99.90;;;;;;4985469;28;20101;-34
2023/07/26 04:35:52;;;;;;;4.05;2.30;;;12.20;99.90;;;;;;4985903;28;20063;-34
2023/07/26 04:38:21;;;;;;;4.28;2.47;;;12.20;99.90;;;;;;4982438;28;20046;-34
2023/07/26 04:40:47;;;;;;;9.27;2.45;;;12.20;99.90;;;;;;4987702;28;20050;-33
2023/07/26 04:43:19;;;;;;;5.55;2.60;;;12.30;99.90;;;;;;4981002;28;20082;-35
2023/07/26 04:45:49;;;;;;;7.40;2.47;;;12.30;99.90;;;;;;4985457;28;20046;-34
2023/07/26 04:48:19;;;;;;;4.13;2.33;;;12.30;99.90;;;;;;4985251;28;20054;-34
2023/07/26 04:50:47;;;;;;;5.32;2.60;;;12.40;99.90;;;;;;4983866;28;20046;-34
2023/07/26 04:53:13;;;;;;;3.05;1.95;;;12.50;99.90;;;;;;4981781;28;20519;-34
2023/07/26 04:55:51;;;;;;;3.42;2.15;;;12.50;99.90;;;;;;4985637;28;20054;-34
2023/07/26 04:58:18;;;;;;;3.47;2.30;;;12.50;99.90;;;;;;4980926;28;20054;-34
2023/07/26 05:00:44;;;;;;;7.57;2.38;;;12.50;99.90;;;;;;4985720;28;20501;-34
2023/07/26 05:03:10;;;;;;;3.30;1.92;;;12.60;99.90;;;;;;4979816;28;20057;-34
2023/07/26 05:05:36;;;;;;;3.17;2.05;;;12.60;99.90;;;;;;4986135;28;20488;-34
2023/07/26 05:08:02;;;;;;;3.78;2.05;;;12.50;99.90;;;;;;4982650;28;20054;-34
2023/07/26 05:10:29;;;;;;;4.72;2.50;;;12.60;99.90;;;;;;4982051;28;20420;-34
2023/07/26 05:12:56;;;;;;;3.95;2.20;;;12.60;99.90;;;;;;4985337;28;20133;-34
2023/07/26 05:15:21;;;;;;;4.07;2.38;;;12.60;99.90;;;;;;4980672;28;20051;-34
2023/07/26 05:17:47;;;;;;;4.00;1.95;;;12.70;99.90;;;;;;4987863;28;20050;-35
2023/07/26 05:20:13;;;;;;;8.05;2.60;;;12.70;99.90;;;;;;4984684;28;20515;-34
2023/07/26 05:22:39;;;;;;;5.05;2.70;;;12.80;99.90;;;;;;4984977;28;20072;-34
2023/07/26 05:25:05;;;;;;;6.32;2.58;;;12.80;99.90;;;;;;4987862;28;20068;-34
2023/07/26 05:27:31;;;;;;;5.00;2.45;;;12.90;99.90;;;;;;4982688;28;20055;-34
2023/07/26 05:29:59;;;;;;;6.00;2.90;;;12.90;99.90;;;;;;4982917;28;20057;-34
2023/07/26 05:32:26;;;;;;;4.07;2.35;;;12.90;99.90;;;;;;4984603;28;20050;-34
2023/07/26 05:34:54;;;;;;;3.95;2.30;;;12.90;99.90;;;;;;4981409;28;20492;-35
2023/07/26 05:37:20;;;;;;;3.72;2.15;;;13.00;99.90;;;;;;4987818;28;20046;-35
2023/07/26 05:39:47;;;;;;;4.00;2.28;;;13.00;99.90;;;;;;4983172;28;20070;-35
2023/07/26 05:42:13;;;;;;;5.43;2.42;;;13.10;99.90;;;;;;4985572;28;20054;-34
2023/07/26 05:44:39;;;;;;;4.32;1.90;;;13.20;99.90;;;;;;4986669;28;20065;-35
2023/07/26 05:47:05;;;;;;;4.10;2.10;;;13.20;99.90;;;;;;4983858;28;20054;-35
2023/07/26 05:49:31;;;;;;;4.63;2.33;;;13.30;99.90;;;;;;4981388;28;20082;-34
2023/07/26 05:51:57;;;;;;;4.95;2.40;;;13.30;99.90;;;;;;4986284;28;20085;-34
2023/07/26 05:54:23;;;;;;;4.00;2.45;;;13.40;99.90;;;;;;4985418;28;20154;-35
2023/07/26 05:56:49;;;;;;;4.80;2.17;;;13.40;99.90;;;;;;4984929;28;20133;-35
2023/07/26 05:59:14;;;;;;;3.50;2.40;;;13.50;99.90;;;;;;4999676;28;20062;-35
2023/07/26 06:01:40;;;;;;;5.25;2.50;;;13.50;99.90;;;;;;4982239;28;20057;-35
2023/07/26 06:04:06;;;;;;;3.72;2.00;;;13.50;99.90;;;;;;4987449;28;20077;-34
2023/07/26 06:06:31;;;;;;;6.15;2.40;;;13.60;99.90;;;;;;4981495;28;20721;-35
2023/07/26 06:08:57;;;;;;;3.70;2.33;;;13.60;99.90;;;;;;4980902;28;20418;-34
2023/07/26 06:11:23;;;;;;;6.43;2.22;;;13.80;99.90;;;;;;4980065;28;20472;-35
2023/07/26 06:13:49;;;;;;;4.80;2.83;;;13.80;99.90;;;;;;4981217;28;20161;-35
2023/07/26 06:16:15;;;;;;;3.85;2.10;;;13.90;99.90;;;;;;4977692;28;20058;-34
2023/07/26 06:18:40;;;;;;;3.45;2.22;;;14.00;99.90;;;;;;4992467;28;20050;-35
2023/07/26 06:21:06;;;;;;;3.38;1.85;;;14.10;99.90;;;;;;4979102;28;20058;-35
2023/07/26 06:23:32;;;;;;;6.25;1.80;;;14.20;99.90;;;;;;4978406;28;20050;-35
2023/07/26 06:25:57;;;;;;;4.60;1.90;;;14.30;99.90;;;;;;4978625;28;20049;-35
2023/07/26 06:28:23;;;;;;;3.25;2.00;;;14.40;99.90;;;;;;4976217;28;20174;-34
2023/07/26 06:30:49;;;;;;;3.53;2.03;;;14.50;99.90;;;;;;4980085;28;20544;-34
2023/07/26 06:33:14;;;;;;;5.43;2.58;;;14.50;99.90;;;;;;4978379;28;20053;-34
2023/07/26 06:35:40;;;;;;;3.40;1.90;;;14.60;99.90;;;;;;4977159;28;20057;-34
2023/07/26 06:38:06;;;;;;;5.45;2.67;;;14.70;99.90;;;;;;4986465;28;20058;-34
2023/07/26 06:40:31;;;;;;;5.53;2.25;;;14.70;99.90;;;;;;4986623;28;20419;-35
2023/07/26 06:42:57;;;;;;;3.67;1.83;;;14.70;99.90;;;;;;4984637;28;20054;-35
2023/07/26 06:45:23;;;;;;;3.88;1.90;;;14.70;99.90;;;;;;4971629;28;20058;-35
2023/07/26 06:47:48;;;;;;;2.97;1.92;;;14.60;99.90;;;;;;4990805;28;20050;-34
2023/07/26 06:50:14;;;;;;;4.10;2.47;;;14.60;99.90;;;;;;4979490;28;20471;-34
2023/07/26 06:52:40;;;;;;;4.10;1.80;;;14.60;99.90;;;;;;4979958;28;20054;-35
2023/07/26 06:55:06;;;;;;;5.22;2.45;;;14.50;99.90;;;;;;4982109;28;20050;-35
2023/07/26 06:57:31;;;;;;;4.55;2.42;;;14.50;99.90;;;;;;4980079;28;20142;-35
2023/07/26 06:59:57;;;;;;;4.95;2.80;;;14.50;99.90;;;;;;4984661;28;20112;-34
2023/07/26 07:02:22;;;;;;;6.50;2.78;;;14.40;99.90;;;;;;4974915;28;20855;-34
2023/07/26 07:04:48;;;;;;;5.43;2.83;;;14.30;99.90;;;;;;4981876;28;20058;-34
2023/07/26 07:07:14;;;;;;;5.10;2.70;;;14.10;99.90;;;;;;4982506;28;20054;-34
2023/07/26 07:09:39;;;;;;;5.53;2.45;;;14.10;99.90;;;;;;4981518;28;20077;-34
2023/07/26 07:12:07;;;;;;;4.70;1.90;;;14.00;99.90;;;;;;4984648;28;20539;-34
2023/07/26 07:14:33;;;;;;;3.05;1.17;;;13.90;99.90;;;;;;4979205;28;20524;-35
2023/07/26 07:17:00;;;;;;;3.58;0.63;;;13.80;99.90;;;;;;4982513;28;20069;-34
2023/07/26 07:19:26;;;;;;;1.65;0.47;;;13.70;99.90;;;;;;4986931;28;20054;-34
2023/07/26 07:21:51;;;;;;;0.95;0.50;;;13.60;99.90;;;;;;4987316;28;20448;-34
2023/07/26 07:24:17;;;;;;;2.28;0.77;;;13.60;99.90;;;;;;4986984;28;20148;-34
2023/07/26 07:26:43;;;;;;;1.77;0.93;;;13.50;99.90;;;;;;4985522;28;20415;-35
2023/07/26 07:29:08;;;;;;;2.55;1.10;;;13.60;99.90;;;;;;4985310;28;20054;-34
2023/07/26 07:31:34;;;;;;;6.20;1.42;;;13.70;99.90;;;;;;4982151;28;20352;-34
2023/07/26 07:34:00;;;;;;;2.20;0.90;;;13.80;99.90;;;;;;4980382;28;20054;-34
2023/07/26 07:36:25;;;;;;;3.35;1.33;;;13.90;99.90;;;;;;4977234;28;20054;-34
2023/07/26 07:38:51;;;;;;;4.57;1.20;;;14.00;99.90;;;;;;4977827;28;20042;-34
2023/07/26 07:41:17;;;;;;;1.83;0.98;;;14.10;99.90;;;;;;4986069;28;20053;-34
2023/07/26 07:43:42;;;;;;;2.35;1.00;;;14.10;99.90;;;;;;4981243;28;20085;-34
2023/07/26 07:46:08;;;;;;;2.33;1.17;;;14.10;99.90;;;;;;4986962;28;20042;-34
2023/07/26 07:48:34;;;;;;;2.22;1.00;;;14.20;99.90;;;;;;4982225;28;20519;-34
2023/07/26 07:51:00;;;;;;;1.98;0.85;;;14.30;99.90;;;;;;4983581;28;20677;-34
2023/07/26 07:53:26;;;;;;;2.50;1.00;;;14.40;99.90;;;;;;4978240;28;20269;-34
2023/07/26 07:55:52;;;;;;;1.20;0.60;;;14.40;99.90;;;;;;4979310;28;20054;-34
2023/07/26 07:58:18;;;;;;;1.58;0.80;;;14.40;99.90;;;;;;4978804;28;20172;-34
2023/07/26 08:00:43;;;;;;;3.28;1.15;;;14.50;99.90;;;;;;4977953;28;20623;-34
2023/07/26 08:03:09;;;;;;;1.52;0.80;;;14.60;99.90;;;;;;4978631;28;20559;-34
2023/07/26 08:05:35;;;;;;;4.00;1.00;;;14.60;99.90;;;;;;4985321;28;20058;-35
2023/07/26 08:08:01;;;;;;;1.90;1.00;;;14.70;99.90;;;;;;4989257;28;20081;-35
2023/07/26 08:10:27;;;;;;;2.25;1.15;;;14.90;99.90;;;;;;4982499;28;20051;-35
2023/07/26 08:12:52;;;;;;;1.92;0.90;;;15.10;99.90;;;;;;4978641;28;20076;-34
2023/07/26 08:15:18;;;;;;;3.03;1.40;;;15.20;99.90;;;;;;4979669;28;20038;-34
2023/07/26 08:17:44;;;;;;;3.15;1.20;;;15.30;99.90;;;;;;4979233;28;20105;-34
2023/07/26 08:20:11;;;;;;;2.97;1.50;;;15.40;99.90;;;;;;4980043;28;20084;-34
2023/07/26 08:22:37;;;;;;;3.08;1.60;;;15.50;99.90;;;;;;4975069;28;20064;-35
2023/07/26 08:25:04;;;;;;;2.70;1.48;;;15.70;99.90;;;;;;4975926;28;20125;-34
2023/07/26 08:27:30;;;;;;;2.92;1.30;;;15.80;99.90;;;;;;4980452;28;20165;-35
2023/07/26 08:29:55;;;;;;;2.70;1.33;;;15.90;99.90;;;;;;4980982;28;20058;-35
2023/07/26 08:32:21;;;;;;;2.20;1.00;;;15.90;99.90;;;;;;4982747;28;20543;-35
2023/07/26 08:34:46;;;;;;;3.88;1.40;;;15.80;99.90;;;;;;4976000;28;20061;-35
2023/07/26 08:37:12;;;;;;;3.00;1.33;;;15.80;99.90;;;;;;4981325;28;20424;-34
2023/07/26 08:39:39;;;;;;;3.78;1.60;;;15.80;99.90;;;;;;4979138;28;20072;-34
2023/07/26 08:42:05;;;;;;;2.90;1.55;;;15.80;99.90;;;;;;4977799;28;20063;-34
2023/07/26 08:44:33;;;;;;;18.17;1.60;;;16.10;99.90;;;;;;4976191;28;20416;-34
2023/07/26 08:46:59;;;;;;;3.47;1.70;;;16.20;99.90;;;;;;4978542;28;20491;-34
2023/07/26 08:49:26;;;;;;;3.55;1.65;;;16.40;99.90;;;;;;4979978;28;20054;-34
2023/07/26 08:51:52;;;;;;;3.33;1.33;;;16.60;99.90;;;;;;4992997;28;20129;-34
2023/07/26 08:54:18;;;;;;;2.10;1.00;;;16.80;99.90;;;;;;4980732;28;20042;-34
2023/07/26 08:56:44;;;;;;;2.20;1.00;;;17.00;99.90;;;;;;4978145;28;20090;-34
2023/07/26 08:59:09;;;;;;;3.10;1.38;;;17.00;99.90;;;;;;4981851;28;20057;-34
2023/07/26 09:01:36;;;;;;;2.90;1.30;;;17.00;99.90;;;;;;4981666;28;20046;-34
2023/07/26 09:04:02;;;;;;;3.80;1.30;;;16.90;99.90;;;;;;4979967;28;20572;-34
2023/07/26 09:06:28;;;;;;;2.20;1.10;;;16.90;99.90;;;;;;4980527;28;20060;-35
2023/07/26 09:08:54;;;;;;;3.97;1.10;;;16.90;99.90;;;;;;4983100;28;20432;-34
2023/07/26 09:11:24;;;;;;;2.75;1.65;;;17.00;99.90;;;;;;4979780;28;20049;-34
2023/07/26 09:13:57;;;;;;;3.70;1.58;;;17.00;99.90;;;;;;4981569;28;20492;-34
2023/07/26 09:16:27;;;;;;;2.72;1.40;;;17.00;99.90;;;;;;4979398;28;20046;-34
2023/07/26 09:19:04;;;;;;;5.82;1.38;;;16.90;99.90;;;;;;4979324;28;20050;-35
2023/07/26 09:21:32;;;;;;;3.20;1.30;;;16.90;99.90;;;;;;4981126;28;20062;-35
2023/07/26 09:23:59;;;;;;;3.50;1.92;;;17.00;99.90;;;;;;4978701;28;20524;-35
2023/07/26 09:26:41;;;;;;;3.72;2.00;;;17.20;99.90;;;;;;4976433;28;20046;-35
2023/07/26 09:29:10;;;;;;;3.90;1.30;;;17.30;99.90;;;;;;4974859;28;20069;-35
2023/07/26 09:31:38;;;;;;;2.63;1.50;;;17.30;99.90;;;;;;4976578;28;20680;-35
2023/07/26 09:34:07;;;;;;;3.35;1.40;;;17.30;99.90;;;;;;4977761;28;20057;-35
2023/07/26 09:36:52;;;;;;;4.13;1.88;;;17.30;99.90;;;;;;4979677;28;20080;-35
2023/07/26 09:39:20;;;;;;;3.83;1.63;;;17.40;99.90;;;;;;4981974;28;20054;-35
2023/07/26 09:41:47;;;;;;;2.53;1.10;;;17.50;99.90;;;;;;4978512;28;20050;-35
2023/07/26 09:44:17;;;;;;;3.65;1.20;;;17.60;99.90;;;;;;4983192;28;20050;-35
2023/07/26 09:46:49;;;;;;;5.15;1.30;;;17.50;99.90;;;;;;4986102;28;20050;-35
2023/07/26 09:49:16;;;;;;;2.50;1.27;;;17.60;99.90;;;;;;4984332;28;20062;-35
2023/07/26 09:51:43;;;;;;;2.88;1.13;;;17.80;99.90;;;;;;4984900;28;20054;-35
2023/07/26 09:54:10;;;;;;;2.45;1.05;;;18.10;99.90;;;;;;4999400;28;20046;-35
2023/07/26 09:56:38;;;;;;;1.88;1.10;;;18.30;99.90;;;;;;4988083;28;20054;-35
2023/07/26 09:59:09;;;;;;;3.42;1.58;;;18.50;99.90;;;;;;4986028;28;20183;-35
2023/07/26 10:01:40;;;;;;;3.25;1.13;;;18.40;99.90;;;;;;4984931;28;20054;-35
2023/07/26 10:04:14;;;;;;;3.42;1.52;;;18.40;99.90;;;;;;4977704;28;20120;-35
2023/07/26 10:06:42;;;;;;;3.05;0.90;;;18.60;99.90;;;;;;4983019;28;20515;-35
2023/07/26 10:09:14;;;;;;;2.58;1.30;;;18.80;99.90;;;;;;4979298;28;20466;-35
2023/07/26 10:11:42;;;;;;;4.53;1.20;;;18.90;99.90;;;;;;4980875;28;20397;-35
2023/07/26 10:14:09;;;;;;;3.15;1.00;;;19.10;99.90;;;;;;4979560;28;20375;-35
2023/07/26 10:16:37;;;;;;;3.78;1.10;;;19.20;99.90;;;;;;4985067;28;20205;-35
2023/07/26 10:19:03;;;;;;;2.67;1.17;;;19.20;99.90;;;;;;4990967;28;20046;-35
2023/07/26 10:21:30;;;;;;;3.13;1.15;;;19.00;99.90;;;;;;4984341;28;20050;-35
2023/07/26 10:24:02;;;;;;;2.67;1.00;;;18.80;99.90;;;;;;4982887;28;20070;-35
2023/07/26 10:26:32;;;;;;;2.78;0.82;;;18.60;99.90;;;;;;4976179;28;20141;-35
2023/07/26 10:28:59;;;;;;;2.22;0.80;;;18.60;99.90;;;;;;4978891;28;20054;-35
2023/07/26 10:31:29;;;;;;;1.73;0.75;;;18.70;99.90;;;;;;4977086;28;20058;-35
2023/07/26 10:33:56;;;;;;;2.40;0.80;;;19.00;99.90;;;;;;4975470;28;20047;-35
2023/07/26 10:36:28;;;;;;;1.58;0.60;;;19.40;99.90;;;;;;4978861;28;21178;-35
2023/07/26 10:38:54;;;;;;;;;;;19.50;99.90;;;;;;4980304;28;20079;-35
2023/07/26 10:41:20;;;;;;;1.52;0.60;;;19.50;99.90;;;;;;4979808;28;20060;-35
2023/07/26 10:43:49;;;;;;;2.17;0.50;;;19.30;99.90;;;;;;4979927;28;20492;-35
2023/07/26 10:46:15;;;;;;;1.60;0.60;;;19.10;99.90;;;;;;4978380;28;20681;-35
2023/07/26 10:48:42;;;;;;;3.80;0.82;;;18.80;99.90;;;;;;4970461;28;20109;-35
2023/07/26 10:51:22;;;;;;;2.92;0.90;;;18.60;99.90;;;;;;4972072;28;20046;-34
2023/07/26 10:53:48;;;;;;;4.68;1.00;;;18.40;99.90;;;;;;4984416;28;20503;-35
2023/07/26 10:56:23;;;;;;;3.03;1.15;;;18.10;99.90;;;;;;4976056;28;20057;-34
2023/07/26 10:59:09;;;;;;;2.35;0.93;;;17.70;99.90;;;;;;4977339;28;20058;-35
2023/07/26 11:01:44;;;;;;;3.08;1.27;;;17.40;99.90;;;;;;4975376;28;20054;-35
2023/07/26 11:04:11;;;;;;;3.42;1.33;;;17.00;99.90;;;;;;4979066;28;20263;-35
2023/07/26 11:06:59;;;;;;;2.85;1.35;;;16.80;99.90;;;;;;4978823;28;20058;-35
2023/07/26 11:09:25;;;;;;;6.28;2.20;;;16.70;99.90;;;;;;4978436;28;20520;-35
2023/07/26 11:12:02;;;;;;;3.20;1.23;;;16.70;99.90;;;;;;4980783;28;20121;-35
2023/07/26 11:14:32;;;;;;;3.35;1.35;;;16.80;99.90;;;;;;4980844;28;20054;-35
2023/07/26 11:17:07;;;;;;;3.78;1.55;;;17.00;99.90;;;;;;4979242;28;20749;-35
2023/07/26 11:19:47;;;;;;;3.45;1.30;;;17.20;99.90;;;;;;4976639;28;20053;-35
2023/07/26 11:22:12;;;;;;;3.65;1.50;;;17.50;99.90;;;;;;4976620;28;20061;-35
2023/07/26 11:24:38;;;;;;;3.45;1.60;;;17.50;99.90;;;;;;4981128;28;20422;-35
2023/07/26 11:27:06;;;;;;;3.92;1.50;;;17.60;99.90;;;;;;4977709;28;20193;-35
2023/07/26 11:29:34;;;;;;;3.33;1.55;;;17.60;99.90;;;;;;4975895;28;20058;-34
2023/07/26 11:32:00;;;;;;;4.00;1.45;;;17.60;99.90;;;;;;4980504;28;20065;-35
2023/07/26 11:34:26;;;;;;;4.60;1.30;;;17.70;99.90;;;;;;4979044;28;20090;-35
2023/07/26 11:36:51;;;;;;;3.50;1.20;;;17.60;99.90;;;;;;4976365;28;20042;-35
2023/07/26 11:39:22;;;;;;;4.20;1.27;;;17.50;99.90;;;;;;4982538;28;20078;-35
2023/07/26 11:41:48;;;;;;;3.83;1.17;;;17.40;99.90;;;;;;4973646;28;20428;-35
2023/07/26 11:44:14;;;;;;;3.45;1.25;;;17.30;99.90;;;;;;4973924;28;20515;-35
2023/07/26 11:46:43;;;;;;;4.53;1.10;;;17.30;99.90;;;;;;4971731;28;20063;-35
2023/07/26 11:49:23;;;;;;;2.55;0.73;;;17.30;99.90;;;;;;4969172;28;20137;-35
2023/07/26 11:51:50;;;;;;;2.30;0.90;;;17.40;99.90;;;;;;4977349;28;20050;-35
2023/07/26 11:54:17;;;;;;;3.10;1.10;;;17.50;99.90;;;;;;4984752;28;20059;-35
2023/07/26 11:56:43;;;;;;;2.15;0.73;;;17.70;99.90;;;;;;4984109;28;20050;-35
2023/07/26 11:59:10;;;;;;;2.50;0.73;;;17.90;99.90;;;;;;4972893;28;20054;-35
2023/07/26 12:01:37;;;;;;;2.75;0.70;;;17.90;99.90;;;;;;4978766;28;20125;-35
2023/07/26 12:04:14;;;;;;;2.72;1.08;;;17.80;99.90;;;;;;4965362;28;20065;-35
2023/07/26 12:06:41;;;;;;;4.60;1.17;;;17.80;99.90;;;;;;4959708;28;20090;-35
2023/07/26 12:09:11;;;;;;;2.75;1.00;;;17.90;99.90;;;;;;4981312;28;20073;-35
2023/07/26 12:11:38;;;;;;;1.85;0.80;;;17.90;99.90;;;;;;4973267;28;20039;-35
2023/07/26 12:14:04;;;;;;;2.83;0.90;;;18.00;99.90;;;;;;4978457;28;20053;-35
2023/07/26 12:16:31;;;;;;;2.78;0.82;;;18.10;99.90;;;;;;4976758;28;20046;-35
2023/07/26 12:19:00;;;;;;;2.25;0.90;;;18.10;99.90;;;;;;4981658;28;20065;-35
2023/07/26 12:21:27;;;;;;;1.85;0.80;;;18.00;99.90;;;;;;4980405;28;20054;-35
2023/07/26 12:23:58;;;;;;;1.63;0.70;;;17.80;99.90;;;;;;4976694;28;20471;-35
2023/07/26 12:26:35;;;;;;;3.45;1.00;;;17.70;99.90;;;;;;4979184;28;20049;-35
2023/07/26 12:29:03;;;;;;;2.75;1.00;;;17.70;99.90;;;;;;4978353;28;20047;-35
2023/07/26 12:31:31;;;;;;;2.70;1.05;;;17.60;99.90;;;;;;4971608;28;20520;-35
2023/07/26 12:34:00;;;;;;;2.63;1.20;;;17.70;99.90;;;;;;4975783;28;20522;-35
2023/07/26 12:36:41;;;;;;;4.13;1.10;;;17.90;99.90;;;;;;4965150;28;20062;-35
2023/07/26 12:39:08;;;;;;;1.65;0.73;;;18.00;99.90;;;;;;4978377;28;20055;-36
2023/07/26 12:41:38;;;;;;;4.10;1.10;;;18.40;99.90;;;;;;4976608;28;20051;-35
2023/07/26 12:44:07;;;;;;;2.72;1.00;;;18.70;99.90;;;;;;4980310;28;20125;-35
2023/07/26 12:46:34;;;;;;;2.70;1.20;;;18.90;99.90;;;;;;4984614;28;20743;-35